createdAt,value
2018-12-15T00:00:33.374Z,67.05
2018-12-15T00:03:03.807Z,67.17
2018-12-15T00:05:32.456Z,66.83
2018-12-15T00:08:02.830Z,67.52
2018-12-15T00:10:31.537Z,67.40
2018-12-15T00:13:00.260Z,67.25
2018-12-15T00:15:29.076Z,67.01
2018-12-15T00:17:57.721Z,67.12
2018-12-15T00:20:26.405Z,67.19
2018-12-15T00:22:55.206Z,67.28
2018-12-15T00:25:24.136Z,67.05
2018-12-15T00:27:53.044Z,67.18
2018-12-15T00:30:22.669Z,67.06
2018-12-15T00:32:51.362Z,67.05
2018-12-15T00:35:20.380Z,67.33
2018-12-15T00:37:49.224Z,67.01
2018-12-15T00:40:17.861Z,67.05
2018-12-15T00:42:46.801Z,67.04
2018-12-15T00:45:16.102Z,67.10
2018-12-15T00:47:45.284Z,67.24
2018-12-15T00:50:14.279Z,67.22
2018-12-15T00:52:43.177Z,67.32
2018-12-15T00:55:11.938Z,67.20
2018-12-15T00:57:40.707Z,67.65
2018-12-15T01:00:09.554Z,67.24
2018-12-15T01:02:38.293Z,67.25
2018-12-15T01:05:08.653Z,66.72
2018-12-15T01:07:37.347Z,66.93
2018-12-15T01:10:09.371Z,67.04
2018-12-15T01:12:38.003Z,67.00
2018-12-15T01:15:06.806Z,66.76
2018-12-15T01:17:35.626Z,66.56
2018-12-15T01:20:05.930Z,67.01
2018-12-15T01:22:34.772Z,67.27
2018-12-15T01:25:06.148Z,66.32
2018-12-15T01:27:34.781Z,66.17
2018-12-15T01:30:05.263Z,66.27
2018-12-15T01:32:33.907Z,66.72
2018-12-15T01:35:04.752Z,66.83
2018-12-15T01:37:33.734Z,67.05
2018-12-15T01:40:04.419Z,67.12
2018-12-15T01:42:33.257Z,67.32
2018-12-15T01:45:04.263Z,67.05
2018-12-15T01:47:32.877Z,67.06
2018-12-15T01:50:05.002Z,67.11
2018-12-15T01:52:33.654Z,67.46
2018-12-15T01:55:03.903Z,67.07
2018-12-15T01:57:32.532Z,67.48
2018-12-15T02:00:05.482Z,67.69
2018-12-15T02:02:35.105Z,67.23
2018-12-15T02:05:05.879Z,67.82
2018-12-15T02:07:34.719Z,67.52
2018-12-15T02:10:05.798Z,67.08
2018-12-15T02:12:34.890Z,67.22
2018-12-15T02:15:04.950Z,67.43
2018-12-15T02:17:33.905Z,67.11
2018-12-15T02:20:03.931Z,67.31
2018-12-15T02:22:32.666Z,66.54
2018-12-15T02:25:02.635Z,66.44
2018-12-15T02:27:31.294Z,66.51
2018-12-15T02:30:00.050Z,66.87
2018-12-15T02:32:28.918Z,67.21
2018-12-15T02:34:57.583Z,66.94
2018-12-15T02:37:28.788Z,67.12
2018-12-15T02:39:57.538Z,66.93
2018-12-15T02:42:26.230Z,66.77
2018-12-15T02:44:54.944Z,66.44
2018-12-15T02:47:24.148Z,66.61
2018-12-15T02:49:52.733Z,66.66
2018-12-15T02:52:21.445Z,66.82
2018-12-15T02:54:50.525Z,66.48
2018-12-15T02:57:19.181Z,66.91
2018-12-15T02:59:47.779Z,66.53
2018-12-15T03:02:16.632Z,66.26
2018-12-15T03:04:45.435Z,65.67
2018-12-15T03:07:14.076Z,66.46
2018-12-15T03:09:43.912Z,66.85
2018-12-15T03:12:12.839Z,66.93
2018-12-15T03:14:41.762Z,66.74
2018-12-15T03:17:10.987Z,67.33
2018-12-15T03:19:39.765Z,66.93
2018-12-15T03:22:08.472Z,66.55
2018-12-15T03:24:37.590Z,66.28
2018-12-15T03:27:06.294Z,66.55
2018-12-15T03:29:35.108Z,66.25
2018-12-15T03:32:05.547Z,66.16
2018-12-15T03:34:34.213Z,66.62
2018-12-15T03:37:04.677Z,66.50
2018-12-15T03:39:33.343Z,66.65
2018-12-15T03:42:03.909Z,66.76
2018-12-15T03:44:32.643Z,66.70
2018-12-15T03:47:02.822Z,66.74
2018-12-15T03:49:31.447Z,66.62
2018-12-15T03:52:00.291Z,66.61
2018-12-15T03:54:28.993Z,66.41
2018-12-15T03:56:58.072Z,66.51
2018-12-15T03:59:27.098Z,66.34
2018-12-15T04:01:56.179Z,66.42
2018-12-15T04:04:25.148Z,66.46
2018-12-15T04:06:54.010Z,66.83
2018-12-15T04:09:22.760Z,66.74
2018-12-15T04:11:51.399Z,66.20
2018-12-15T04:14:20.067Z,66.75
2018-12-15T04:16:48.874Z,66.44
2018-12-15T04:19:17.648Z,66.71
2018-12-15T04:21:47.464Z,65.99
2018-12-15T04:24:17.538Z,66.26
2018-12-15T04:26:46.184Z,66.13
2018-12-15T04:29:14.909Z,66.32
2018-12-15T04:31:43.937Z,66.32
2018-12-15T04:34:12.697Z,66.15
2018-12-15T04:36:41.268Z,66.03
2018-12-15T04:39:10.138Z,66.06
2018-12-15T04:41:39.312Z,66.26
2018-12-15T04:44:08.185Z,66.42
2018-12-15T04:46:37.115Z,66.53
2018-12-15T04:49:05.831Z,66.43
2018-12-15T04:51:34.607Z,66.20
2018-12-15T04:54:05.232Z,66.14
2018-12-15T04:56:34.329Z,66.47
2018-12-15T04:59:05.679Z,66.11
2018-12-15T05:01:34.370Z,66.55
2018-12-15T05:04:05.646Z,65.86
2018-12-15T05:06:34.488Z,66.02
2018-12-15T05:09:06.183Z,66.30
2018-12-15T05:11:34.870Z,66.22
2018-12-15T05:14:05.450Z,66.46
2018-12-15T05:16:34.284Z,66.57
2018-12-15T05:19:05.254Z,66.19
2018-12-15T05:21:33.877Z,66.42
2018-12-15T05:24:04.428Z,66.52
2018-12-15T05:26:33.217Z,66.21
2018-12-15T05:29:02.721Z,66.54
2018-12-15T05:31:31.405Z,66.65
2018-12-15T05:34:00.162Z,65.94
2018-12-15T05:36:29.195Z,66.37
2018-12-15T05:38:58.150Z,66.33
2018-12-15T05:41:26.819Z,66.37
2018-12-15T05:44:02.887Z,65.98
2018-12-15T05:46:31.620Z,66.41
2018-12-15T05:49:00.291Z,66.20
2018-12-15T05:51:28.934Z,66.50
2018-12-15T05:53:57.623Z,66.16
2018-12-15T05:56:26.253Z,66.13
2018-12-15T05:58:55.066Z,66.14
2018-12-15T06:01:23.784Z,65.98
2018-12-15T06:03:53.078Z,65.99
2018-12-15T06:06:21.732Z,65.82
2018-12-15T06:08:50.401Z,65.80
2018-12-15T06:11:19.001Z,65.85
2018-12-15T06:13:47.659Z,65.64
2018-12-15T06:16:16.282Z,65.83
2018-12-15T06:18:44.969Z,65.68
2018-12-15T06:21:13.625Z,65.70
2018-12-15T06:23:42.442Z,65.29
2018-12-15T06:26:11.186Z,65.08
2018-12-15T06:28:39.769Z,65.03
2018-12-15T06:31:08.431Z,65.05
2018-12-15T06:33:37.301Z,64.61
2018-12-15T06:36:06.325Z,64.53
2018-12-15T06:38:36.163Z,64.28
2018-12-15T06:41:04.989Z,64.04
2018-12-15T06:43:34.307Z,64.05
2018-12-15T06:46:04.973Z,63.94
2018-12-15T06:48:38.128Z,63.61
2018-12-15T06:51:05.669Z,63.63
2018-12-15T06:53:34.594Z,63.05
2018-12-15T06:56:06.191Z,62.78
2018-12-15T06:58:34.983Z,62.57
2018-12-15T07:01:06.265Z,62.46
2018-12-15T07:03:35.106Z,62.43
2018-12-15T07:06:06.367Z,62.52
2018-12-15T07:08:35.123Z,62.87
2018-12-15T07:11:05.542Z,63.04
2018-12-15T07:13:34.489Z,62.54
2018-12-15T07:16:06.769Z,62.60
2018-12-15T07:18:35.522Z,62.89
2018-12-15T07:21:07.154Z,62.96
2018-12-15T07:23:35.851Z,63.23
2018-12-15T07:26:06.724Z,62.94
2018-12-15T07:28:35.670Z,62.83
2018-12-15T07:31:05.488Z,62.41
2018-12-15T07:33:35.292Z,62.67
2018-12-15T07:36:07.327Z,62.49
2018-12-15T07:38:35.965Z,62.84
2018-12-15T07:41:08.379Z,63.10
2018-12-15T07:43:37.445Z,62.34
2018-12-15T07:46:06.291Z,62.45
2018-12-15T07:48:35.142Z,62.23
2018-12-15T07:51:07.033Z,62.21
2018-12-15T07:53:36.170Z,62.03
2018-12-15T07:56:06.399Z,61.91
2018-12-15T07:58:34.989Z,62.27
2018-12-15T08:01:06.712Z,62.06
2018-12-15T08:03:35.475Z,62.23
2018-12-15T08:06:06.123Z,61.98
2018-12-15T08:08:35.038Z,62.25
2018-12-15T08:11:11.140Z,62.30
2018-12-15T08:13:42.960Z,62.27
2018-12-15T08:16:11.588Z,62.05
2018-12-15T08:18:40.367Z,61.87
2018-12-15T08:21:08.979Z,61.64
2018-12-15T08:23:37.801Z,61.74
2018-12-15T08:26:17.874Z,61.31
2018-12-15T08:29:18.021Z,61.47
2018-12-15T08:31:46.800Z,61.31
2018-12-15T08:34:15.576Z,61.08
2018-12-15T08:36:44.627Z,61.16
2018-12-15T08:39:13.612Z,61.16
2018-12-15T08:41:42.525Z,60.95
2018-12-15T08:44:11.602Z,60.94
2018-12-15T08:46:40.356Z,61.16
2018-12-15T08:49:09.963Z,60.42
2018-12-15T08:51:39.118Z,61.07
2018-12-15T08:54:08.178Z,61.29
2018-12-15T08:56:36.885Z,60.93
2018-12-15T08:59:06.951Z,61.41
2018-12-15T09:01:35.564Z,61.11
2018-12-15T09:04:05.320Z,60.91
2018-12-15T09:06:34.281Z,60.95
2018-12-15T09:09:05.832Z,60.63
2018-12-15T09:11:34.826Z,60.77
2018-12-15T09:14:04.923Z,60.36
2018-12-15T09:16:33.505Z,60.54
2018-12-15T09:19:04.294Z,61.06
2018-12-15T09:21:32.899Z,60.54
2018-12-15T09:24:02.887Z,60.45
2018-12-15T09:26:31.615Z,60.75
2018-12-15T09:29:00.265Z,60.14
2018-12-15T09:31:29.561Z,60.61
2018-12-15T09:33:58.458Z,60.68
2018-12-15T09:36:27.608Z,60.29
2018-12-15T09:38:56.280Z,60.51
2018-12-15T09:41:25.203Z,59.74
2018-12-15T09:43:54.238Z,59.90
2018-12-15T09:46:23.135Z,59.67
2018-12-15T09:48:51.885Z,59.66
2018-12-15T09:51:20.712Z,59.89
2018-12-15T09:53:49.525Z,59.49
2018-12-15T09:56:18.218Z,59.25
2018-12-15T09:58:47.189Z,59.65
2018-12-15T10:01:15.957Z,59.35
2018-12-15T10:03:44.600Z,59.05
2018-12-15T10:06:13.224Z,59.21
2018-12-15T10:08:41.883Z,59.07
2018-12-15T10:11:10.721Z,59.33
2018-12-15T10:13:40.302Z,59.08
2018-12-15T10:16:09.083Z,58.73
2018-12-15T10:18:37.705Z,58.73
2018-12-15T10:21:06.338Z,58.60
2018-12-15T10:23:35.052Z,57.91
2018-12-15T10:26:06.928Z,57.79
2018-12-15T10:28:36.122Z,57.51
2018-12-15T10:31:10.396Z,56.92
2018-12-15T10:33:39.069Z,55.98
2018-12-15T10:36:07.676Z,56.22
2018-12-15T10:38:36.333Z,56.32
2018-12-15T10:41:05.227Z,55.68
2018-12-15T10:43:34.094Z,56.04
2018-12-15T10:46:04.358Z,55.63
2018-12-15T10:48:33.123Z,55.50
2018-12-15T10:51:03.247Z,55.68
2018-12-15T10:53:31.878Z,54.88
2018-12-15T10:56:01.014Z,55.06
2018-12-15T10:58:29.573Z,54.10
2018-12-15T11:01:03.497Z,54.16
2018-12-15T11:03:32.329Z,54.16
2018-12-15T11:06:02.715Z,54.28
2018-12-15T11:08:31.590Z,54.24
2018-12-15T11:11:00.243Z,54.14
2018-12-15T11:13:28.969Z,54.49
2018-12-15T11:15:57.705Z,53.86
2018-12-15T11:18:26.355Z,54.14
2018-12-15T11:20:55.540Z,54.74
2018-12-15T11:23:24.608Z,54.08
2018-12-15T11:25:53.200Z,54.63
2018-12-15T11:28:21.879Z,54.00
2018-12-15T11:30:50.861Z,54.07
2018-12-15T11:33:19.515Z,54.15
2018-12-15T11:35:48.223Z,54.05
2018-12-15T11:38:16.873Z,52.57
2018-12-15T11:40:45.710Z,52.49
2018-12-15T11:43:14.448Z,52.78
2018-12-15T11:45:43.272Z,52.94
2018-12-15T11:48:13.315Z,53.29
2018-12-15T11:50:43.113Z,53.39
2018-12-15T11:53:11.752Z,52.84
2018-12-15T11:55:40.614Z,53.04
2018-12-15T11:58:09.357Z,51.40
2018-12-15T12:00:38.143Z,51.16
2018-12-15T12:03:06.926Z,51.72
2018-12-15T12:05:36.409Z,52.04
2018-12-15T12:08:06.966Z,51.92
2018-12-15T12:10:35.886Z,51.89
2018-12-15T12:13:06.350Z,51.19
2018-12-15T12:15:35.172Z,51.75
2018-12-15T12:18:05.998Z,52.09
2018-12-15T12:20:34.818Z,52.08
2018-12-15T12:23:04.689Z,52.25
2018-12-15T12:25:34.073Z,52.36
2018-12-15T12:28:04.307Z,52.74
2018-12-15T12:30:33.089Z,52.33
2018-12-15T12:33:03.595Z,52.09
2018-12-15T12:35:32.287Z,52.23
2018-12-15T12:38:03.455Z,52.53
2018-12-15T12:40:32.139Z,52.34
2018-12-15T12:43:02.866Z,52.17
2018-12-15T12:45:31.766Z,52.60
2018-12-15T12:48:00.400Z,52.62
2018-12-15T12:50:29.136Z,53.01
2018-12-15T12:52:57.903Z,52.85
2018-12-15T12:55:26.612Z,52.81
2018-12-15T12:57:55.337Z,52.50
2018-12-15T13:00:24.337Z,52.35
2018-12-15T13:02:53.152Z,52.21
2018-12-15T13:05:21.812Z,52.40
2018-12-15T13:07:50.760Z,52.44
2018-12-15T13:10:19.575Z,52.15
2018-12-15T13:12:48.244Z,52.81
2018-12-15T13:15:17.738Z,53.30
2018-12-15T13:17:46.410Z,52.76
2018-12-15T13:20:15.234Z,52.30
2018-12-15T13:22:44.075Z,52.30
2018-12-15T13:25:12.828Z,52.80
2018-12-15T13:27:41.542Z,52.78
2018-12-15T13:30:11.849Z,52.45
2018-12-15T13:32:40.615Z,52.02
2018-12-15T13:35:09.750Z,51.81
2018-12-15T13:37:38.386Z,52.34
2018-12-15T13:40:08.202Z,52.28
2018-12-15T13:42:36.893Z,52.53
2018-12-15T13:45:06.209Z,52.41
2018-12-15T13:47:35.128Z,52.81
2018-12-15T13:50:10.265Z,52.53
2018-12-15T13:52:39.053Z,53.17
2018-12-15T13:55:09.731Z,52.25
2018-12-15T13:57:40.350Z,52.79
2018-12-15T14:00:09.579Z,52.32
2018-12-15T14:02:38.384Z,51.09
2018-12-15T14:05:07.161Z,51.70
2018-12-15T14:07:36.120Z,51.43
2018-12-15T14:10:06.243Z,51.61
2018-12-15T14:12:35.291Z,50.98
2018-12-15T14:15:05.476Z,51.19
2018-12-15T14:17:34.206Z,51.54
2018-12-15T14:20:04.286Z,51.46
2018-12-15T14:22:32.969Z,51.76
2018-12-15T14:25:02.441Z,51.61
2018-12-15T14:27:31.273Z,51.83
2018-12-15T14:30:00.020Z,51.86
2018-12-15T14:32:28.844Z,51.40
2018-12-15T14:34:57.669Z,52.13
2018-12-15T14:37:26.401Z,51.91
2018-12-15T14:39:55.297Z,52.18
2018-12-15T14:42:23.973Z,52.59
2018-12-15T14:44:53.901Z,52.54
2018-12-15T14:47:22.842Z,52.72
2018-12-15T14:49:51.473Z,52.62
2018-12-15T14:52:20.288Z,52.74
2018-12-15T14:54:49.143Z,52.82
2018-12-15T14:57:22.040Z,52.72
2018-12-15T14:59:50.884Z,52.86
2018-12-15T15:02:19.554Z,52.57
2018-12-15T15:04:48.346Z,52.29
2018-12-15T15:07:17.088Z,52.39
2018-12-15T15:09:46.275Z,52.94
2018-12-15T15:12:14.947Z,53.01
2018-12-15T15:14:43.784Z,52.90
2018-12-15T15:17:12.456Z,52.59
2018-12-15T15:19:41.128Z,52.55
2018-12-15T15:22:10.433Z,53.01
2018-12-15T15:24:39.222Z,52.69
2018-12-15T15:27:09.893Z,53.20
2018-12-15T15:29:40.524Z,52.77
2018-12-15T15:32:11.307Z,53.03
2018-12-15T15:34:40.204Z,52.55
2018-12-15T15:37:09.145Z,52.90
2018-12-15T15:39:38.126Z,52.99
2018-12-15T15:42:07.273Z,52.71
2018-12-15T15:44:36.033Z,53.20
2018-12-15T15:47:06.051Z,52.45
2018-12-15T15:49:34.813Z,52.41
2018-12-15T15:52:05.845Z,52.47
2018-12-15T15:54:34.738Z,53.19
2018-12-15T15:57:04.944Z,54.06
2018-12-15T15:59:33.677Z,53.95
2018-12-15T16:02:04.619Z,53.96
2018-12-15T16:04:33.403Z,53.93
2018-12-15T16:07:04.411Z,53.47
2018-12-15T16:09:33.100Z,53.55
2018-12-15T16:12:04.713Z,53.60
2018-12-15T16:14:33.475Z,53.66
2018-12-15T16:17:06.153Z,53.63
2018-12-15T16:19:34.834Z,53.96
2018-12-15T16:22:06.514Z,53.50
2018-12-15T16:24:35.263Z,53.73
2018-12-15T16:27:05.844Z,53.56
2018-12-15T16:29:34.501Z,53.92
2018-12-15T16:32:06.300Z,54.25
2018-12-15T16:34:34.988Z,54.46
2018-12-15T16:37:05.504Z,54.29
2018-12-15T16:39:34.148Z,54.25
2018-12-15T16:42:05.017Z,54.19
2018-12-15T16:44:33.724Z,53.58
2018-12-15T16:47:04.356Z,53.65
2018-12-15T16:49:33.532Z,53.47
2018-12-15T16:52:04.484Z,53.69
2018-12-15T16:54:33.655Z,54.12
2018-12-15T16:57:07.875Z,54.31
2018-12-15T16:59:36.843Z,54.22
2018-12-15T17:02:05.633Z,53.90
2018-12-15T17:04:34.295Z,54.07
2018-12-15T17:07:04.704Z,54.01
2018-12-15T17:09:33.506Z,54.45
2018-12-15T17:12:04.409Z,54.83
2018-12-15T17:14:35.144Z,54.63
2018-12-15T17:17:06.399Z,54.13
2018-12-15T17:19:35.037Z,54.54
2018-12-15T17:22:05.998Z,54.37
2018-12-15T17:24:34.703Z,54.80
2018-12-15T17:27:05.000Z,55.01
2018-12-15T17:29:34.137Z,54.98
2018-12-15T17:32:04.663Z,55.06
2018-12-15T17:34:33.510Z,54.99
2018-12-15T17:37:04.659Z,55.03
2018-12-15T17:39:33.704Z,55.23
2018-12-15T17:42:04.523Z,55.48
2018-12-15T17:44:33.351Z,55.82
2018-12-15T17:47:03.612Z,55.77
2018-12-15T17:54:41.974Z,56.00
2018-12-15T17:57:10.698Z,56.06
2018-12-15T17:59:39.282Z,56.44
2018-12-15T18:02:07.980Z,56.38
2018-12-15T18:04:36.799Z,56.58
2018-12-15T18:07:05.884Z,56.65
2018-12-15T18:09:34.550Z,56.94
2018-12-15T18:12:05.191Z,56.87
2018-12-15T18:14:33.908Z,57.04
2018-12-15T18:17:03.971Z,57.19
2018-12-15T18:19:33.085Z,57.46
2018-12-15T18:22:04.403Z,57.45
2018-12-15T18:24:33.125Z,57.71
2018-12-15T18:27:02.839Z,57.77
2018-12-15T18:29:31.737Z,57.56
2018-12-15T18:32:00.863Z,58.13
2018-12-15T18:34:29.556Z,58.36
2018-12-15T18:36:58.291Z,58.09
2018-12-15T18:39:27.122Z,58.19
2018-12-15T18:41:55.989Z,58.44
2018-12-15T18:44:24.809Z,58.29
2018-12-15T18:46:54.066Z,58.36
2018-12-15T18:49:22.867Z,58.32
2018-12-15T18:51:51.825Z,58.34
2018-12-15T18:54:20.941Z,58.65
2018-12-15T18:56:49.839Z,58.70
2018-12-15T18:59:19.031Z,59.02
2018-12-15T19:01:47.652Z,58.78
2018-12-15T19:04:16.874Z,59.02
2018-12-15T19:06:45.601Z,59.10
2018-12-15T19:09:14.370Z,58.99
2018-12-15T19:11:43.374Z,59.21
2018-12-15T19:14:12.241Z,59.63
2018-12-15T19:16:40.858Z,59.43
2018-12-15T19:19:09.907Z,59.44
2018-12-15T19:21:38.819Z,59.59
2018-12-15T19:24:07.744Z,59.69
2018-12-15T19:26:36.550Z,59.82
2018-12-15T19:29:06.352Z,59.53
2018-12-15T19:31:35.166Z,59.50
2018-12-15T19:34:05.600Z,59.41
2018-12-15T19:36:34.831Z,59.81
2018-12-15T19:39:06.371Z,59.53
2018-12-15T19:41:35.166Z,59.67
2018-12-15T19:44:05.964Z,59.79
2018-12-15T19:46:35.168Z,59.46
2018-12-15T19:49:05.411Z,59.53
2018-12-15T19:51:34.244Z,59.32
2018-12-15T19:54:07.954Z,59.42
2018-12-15T19:56:36.886Z,59.51
2018-12-15T19:59:06.236Z,59.65
2018-12-15T20:01:34.965Z,59.05
2018-12-15T20:04:05.485Z,59.04
2018-12-15T20:06:34.509Z,59.42
2018-12-15T20:09:06.468Z,59.30
2018-12-15T20:11:35.285Z,59.18
2018-12-15T20:14:05.851Z,59.13
2018-12-15T20:16:34.764Z,59.45
2018-12-15T20:19:04.595Z,59.26
2018-12-15T20:21:36.052Z,58.96
2018-12-15T20:24:06.037Z,58.92
2018-12-15T20:26:35.990Z,59.32
2018-12-15T20:29:05.747Z,59.76
2018-12-15T20:31:34.491Z,59.14
2018-12-15T20:34:04.227Z,59.29
2018-12-15T20:36:32.951Z,59.58
2018-12-15T20:39:03.318Z,59.33
2018-12-15T20:41:32.288Z,59.21
2018-12-15T20:44:02.960Z,59.23
2018-12-15T20:46:31.729Z,59.51
2018-12-15T20:49:00.717Z,59.24
2018-12-15T20:51:29.424Z,59.13
2018-12-15T20:53:58.950Z,59.22
2018-12-15T20:56:28.179Z,59.19
2018-12-15T20:58:57.002Z,59.41
2018-12-15T21:01:26.323Z,59.22
2018-12-15T21:03:55.284Z,59.01
2018-12-15T21:06:24.441Z,59.08
2018-12-15T21:08:53.225Z,59.34
2018-12-15T21:11:24.275Z,58.84
2018-12-15T21:13:52.951Z,59.06
2018-12-15T21:16:21.867Z,59.05
2018-12-15T21:18:51.196Z,58.55
2018-12-15T21:21:19.934Z,58.63
2018-12-15T21:23:48.907Z,58.55
2018-12-15T21:26:17.961Z,58.84
2018-12-15T21:28:47.124Z,58.66
2018-12-15T21:31:16.275Z,58.55
2018-12-15T21:33:45.428Z,58.55
2018-12-15T21:36:14.321Z,58.52
2018-12-15T21:38:43.021Z,58.57
2018-12-15T21:41:11.851Z,58.46
2018-12-15T21:43:40.810Z,58.47
2018-12-15T21:46:09.529Z,58.18
2018-12-15T21:48:38.244Z,58.00
2018-12-15T21:51:07.038Z,58.37
2018-12-15T21:53:36.056Z,58.18
2018-12-15T21:56:05.976Z,58.23
2018-12-15T21:58:34.898Z,58.13
2018-12-15T22:01:05.804Z,57.90
2018-12-15T22:03:34.702Z,57.83
2018-12-15T22:06:04.608Z,57.93
2018-12-15T22:08:33.322Z,57.80
2018-12-15T22:11:03.241Z,58.02
2018-12-15T22:13:32.105Z,58.18
2018-12-15T22:16:00.745Z,58.29
2018-12-15T22:18:36.352Z,58.37
2018-12-15T22:21:05.422Z,57.86
2018-12-15T22:23:34.165Z,58.00
2018-12-15T22:26:05.794Z,57.72
2018-12-15T22:28:34.450Z,57.80
2018-12-15T22:31:05.046Z,57.72
2018-12-15T22:33:33.962Z,57.69
2018-12-15T22:36:04.086Z,57.86
2018-12-15T22:41:14.625Z,57.64
2018-12-15T22:43:43.422Z,57.80
2018-12-15T22:46:12.412Z,57.75
2018-12-15T22:48:41.324Z,57.89
2018-12-15T22:51:09.998Z,57.70
2018-12-15T22:53:38.702Z,57.58
2018-12-15T22:56:07.505Z,57.93
2018-12-15T22:58:36.283Z,57.66
2018-12-15T23:01:10.528Z,57.46
2018-12-15T23:03:39.946Z,57.63
2018-12-15T23:06:08.967Z,57.31
2018-12-15T23:08:38.019Z,57.54
2018-12-15T23:11:07.918Z,57.52
2018-12-15T23:13:36.907Z,57.18
2018-12-15T23:16:05.853Z,57.46
2018-12-15T23:18:34.749Z,57.30
2018-12-15T23:21:04.597Z,57.06
2018-12-15T23:23:33.233Z,57.20
2018-12-15T23:26:02.877Z,57.21
2018-12-15T23:28:31.508Z,56.92
2018-12-15T23:31:00.168Z,57.11
2018-12-15T23:33:28.913Z,57.04
2018-12-15T23:35:58.163Z,57.00
2018-12-15T23:38:26.905Z,56.88
2018-12-15T23:40:55.531Z,56.69
2018-12-15T23:43:24.238Z,56.83
2018-12-15T23:45:53.022Z,57.04
2018-12-15T23:48:21.668Z,56.73
2018-12-15T23:50:50.387Z,56.67
2018-12-15T23:53:19.113Z,56.75
2018-12-15T23:55:48.090Z,56.95
2018-12-15T23:58:16.724Z,56.90
